Strona główna
METAR-TAF:

METAR-TAF

Lotnisko :

Caldwell, New Jersey, Stany Zjednoczone

Szerokość geograficzna: 40-52-35N, Długość geograficzna: 074-16-59W, wysokość: 52 m

Aktualna obserwacja pogody

Raport powstał 17 minut temu, godzina 10:53 UTC
Wiatr 3 kt od północny wschód
Temperatura 20°C
Wilgotność 94%
Ciśnienie 1014 hPa
Widzialność: 16.1 km
Zachmurzenie całkowite na wysokości 1200 ft

METAR: KCDW 191053Z 04003KT 10SM OVC012 20/19 A2993 RMK AO2 SLP141 T02000189 $

czas: 07:10 (11:10 UTC)


TAF: brakujący

Obserwacja i prognoza pogody dla ponad 4000 lotnisk (raport METAR i TAF).

Dostępne stacje oznaczono żółtymi i czerwonymi punktami na mapie.

Najedź kursorem aby zobaczyć nazwę stacji.

Kliknij aby zobaczyć obserwacje i prognozy pogody.

Aby zmienić mapę: kliknij na zielony przycisk z czarnym krzyżykiem, aby powiększyć; na zielony przycisk z myślnikiem, aby pomniejszyć; na zielone strzałki, aby przejść do map sąsiednich.


METAR-TAF: